createdAt,value
2019-02-14T00:04:29.073Z,50.1
2019-02-14T00:09:31.602Z,58.3
2019-02-14T00:14:34.117Z,67.6
2019-02-14T00:19:36.446Z,72.4
2019-02-14T00:24:38.956Z,58.8
2019-02-14T00:29:41.358Z,44.4
2019-02-14T00:34:43.816Z,21.6
2019-02-14T00:39:46.329Z,32
2019-02-14T00:44:48.757Z,33.7
2019-02-14T00:49:51.218Z,44.8
2019-02-14T00:54:53.631Z,63.1
2019-02-14T00:59:56.124Z,80.1
2019-02-14T01:04:58.554Z,98.4
2019-02-14T01:10:01.138Z,99.9
2019-02-14T01:15:03.473Z,99.9
2019-02-14T01:20:06.007Z,99.9
2019-02-14T01:25:08.406Z,99.9
2019-02-14T01:30:10.849Z,99.9
2019-02-14T01:35:13.320Z,99.9
2019-02-14T01:40:15.760Z,96.9
2019-02-14T01:45:18.220Z,94.2
2019-02-14T01:50:20.684Z,97.5
2019-02-14T01:55:23.143Z,93.4
2019-02-14T02:00:25.582Z,91.8
2019-02-14T02:05:28.035Z,89.9
2019-02-14T02:10:30.503Z,84.4
2019-02-14T02:15:32.959Z,83.6
2019-02-14T02:20:35.513Z,80.2
2019-02-14T02:25:37.866Z,80.1
2019-02-14T02:30:40.322Z,80.1
2019-02-14T02:35:42.834Z,78.8
2019-02-14T02:40:45.246Z,77.3
2019-02-14T02:45:47.711Z,83.9
2019-02-14T02:50:50.280Z,91
2019-02-14T02:55:52.636Z,96.1
2019-02-14T03:00:55.100Z,99.8
2019-02-14T03:05:57.557Z,99.9
2019-02-14T03:11:00.076Z,99.9
2019-02-14T03:16:02.536Z,99.9
2019-02-14T03:21:04.958Z,99.9
2019-02-14T03:26:07.418Z,99.9
2019-02-14T03:31:09.880Z,99.9
2019-02-14T03:36:18.760Z,99.9
2019-02-14T03:41:14.884Z,99.9
2019-02-14T03:46:17.482Z,99.9
2019-02-14T03:51:19.735Z,99.9
2019-02-14T03:56:22.224Z,99.9
2019-02-14T04:01:24.678Z,99.9
2019-02-14T04:06:27.787Z,99.9
2019-02-14T04:11:29.649Z,99.9
2019-02-14T04:16:32.052Z,99.9
2019-02-14T04:21:34.544Z,99.9
2019-02-14T04:26:37.014Z,99.9
2019-02-14T04:31:39.467Z,99.9
2019-02-14T04:36:41.935Z,99.9
2019-02-14T04:41:44.457Z,99.9
2019-02-14T04:46:46.863Z,99.9
2019-02-14T04:51:49.321Z,99.9
2019-02-14T04:56:51.791Z,99.9
2019-02-14T05:01:54.290Z,99.9
2019-02-14T05:06:56.719Z,99.9
2019-02-14T05:11:59.232Z,99.9
2019-02-14T05:17:01.650Z,99.9
2019-02-14T05:22:04.145Z,99.9
2019-02-14T05:27:06.646Z,99.9
2019-02-14T05:32:09.065Z,99.9
2019-02-14T05:37:11.566Z,99.9
2019-02-14T05:42:14.018Z,99.9
2019-02-14T05:47:16.445Z,99.9
2019-02-14T05:52:18.920Z,99.9
2019-02-14T05:57:21.439Z,99.9
2019-02-14T06:02:23.855Z,99.9
2019-02-14T06:07:26.329Z,99.9
2019-02-14T06:12:28.776Z,99.9
2019-02-14T06:17:31.300Z,99.9
2019-02-14T06:22:33.789Z,99.9
2019-02-14T06:27:36.171Z,99.9
2019-02-14T06:32:38.619Z,99.9
2019-02-14T06:37:41.084Z,99.9
2019-02-14T06:42:43.539Z,99.9
2019-02-14T06:47:46.033Z,99.9
2019-02-14T06:52:48.577Z,99.9
2019-02-14T06:57:50.946Z,99.9
2019-02-14T07:02:53.417Z,99.9
2019-02-14T07:07:55.907Z,99.9
2019-02-14T07:12:58.339Z,99.9
2019-02-14T07:18:00.838Z,99.9
2019-02-14T07:23:03.253Z,99.9
2019-02-14T07:28:05.747Z,99.9
2019-02-14T07:33:08.194Z,99.9
2019-02-14T07:38:10.655Z,99.9
2019-02-14T07:43:13.110Z,99.9
2019-02-14T07:48:15.586Z,99.9
2019-02-14T07:53:18.036Z,99.9
2019-02-14T07:58:20.496Z,99.9
2019-02-14T08:03:22.952Z,99.9
2019-02-14T08:08:25.401Z,99.9
2019-02-14T08:13:27.931Z,99.9
2019-02-14T08:18:30.306Z,99.9
2019-02-14T08:23:32.781Z,99.9
2019-02-14T08:28:35.251Z,99.9
2019-02-14T08:33:37.747Z,77.3
2019-02-14T08:38:40.136Z,1
2019-02-14T08:43:42.591Z,1
2019-02-14T08:48:45.068Z,1
2019-02-14T08:53:47.549Z,1
2019-02-14T08:58:50.280Z,1
2019-02-14T09:03:52.420Z,1
2019-02-14T09:08:54.882Z,1
2019-02-14T09:13:57.387Z,1
2019-02-14T09:18:59.824Z,1
2019-02-14T09:24:02.294Z,1
2019-02-14T09:29:04.757Z,1
2019-02-14T09:34:07.218Z,1
2019-02-14T09:39:09.666Z,1
2019-02-14T09:44:12.155Z,1
2019-02-14T09:49:14.611Z,1
2019-02-14T09:54:17.030Z,1
2019-02-14T09:59:19.473Z,1
2019-02-14T10:04:21.917Z,1
2019-02-14T10:09:24.385Z,1
2019-02-14T10:14:26.830Z,1
2019-02-14T10:19:29.293Z,1
2019-02-14T10:24:31.742Z,1
2019-02-14T10:29:34.210Z,1
2019-02-14T10:34:36.682Z,1
2019-02-14T10:39:39.154Z,1
2019-02-14T10:44:41.648Z,1
2019-02-14T10:49:44.038Z,1
2019-02-14T10:54:46.511Z,1
2019-02-14T10:59:48.965Z,1
2019-02-14T11:04:51.441Z,1
2019-02-14T11:09:53.902Z,1
2019-02-14T11:14:56.337Z,1
2019-02-14T11:19:58.839Z,1
2019-02-14T11:25:01.365Z,1
2019-02-14T11:30:03.741Z,1
2019-02-14T11:35:06.239Z,1
2019-02-14T11:40:08.632Z,1
2019-02-14T11:45:11.119Z,1
2019-02-14T11:50:13.564Z,1
2019-02-14T11:55:16.013Z,1
2019-02-14T12:00:18.520Z,1
2019-02-14T12:05:20.935Z,1
2019-02-14T12:10:23.422Z,1
2019-02-14T12:15:25.955Z,1
2019-02-14T12:20:28.354Z,1
2019-02-14T12:25:30.776Z,1
2019-02-14T12:30:33.229Z,1
2019-02-14T12:35:35.721Z,1
2019-02-14T12:40:38.270Z,1
2019-02-14T12:45:40.620Z,1
2019-02-14T12:50:43.061Z,1
2019-02-14T12:55:47.537Z,1
2019-02-14T13:00:48.005Z,1
2019-02-14T13:05:50.530Z,1
2019-02-14T13:10:52.901Z,1
2019-02-14T13:15:55.360Z,1
2019-02-14T13:20:57.873Z,1
2019-02-14T13:26:00.286Z,1
2019-02-14T13:31:02.811Z,1
2019-02-14T13:36:05.193Z,1
2019-02-14T13:41:07.638Z,1
2019-02-14T13:46:10.127Z,1
2019-02-14T13:51:12.576Z,1
2019-02-14T13:56:15.067Z,1
2019-02-14T14:01:17.549Z,1
2019-02-14T14:06:19.933Z,1
2019-02-14T14:11:22.414Z,1
2019-02-14T14:16:24.868Z,1
2019-02-14T14:21:27.318Z,1
2019-02-14T14:26:29.760Z,1
2019-02-14T14:31:32.228Z,1
2019-02-14T14:36:34.720Z,1
2019-02-14T14:41:37.183Z,1
2019-02-14T14:46:39.634Z,1
2019-02-14T14:51:42.048Z,1
2019-02-14T14:56:44.594Z,1
2019-02-14T15:01:47.055Z,1
2019-02-14T15:06:49.441Z,1
2019-02-14T15:11:51.888Z,1
2019-02-14T15:16:54.426Z,1
2019-02-14T15:21:56.798Z,1
2019-02-14T15:26:59.257Z,1
2019-02-14T15:32:01.790Z,1
2019-02-14T15:37:04.193Z,1
2019-02-14T15:42:06.623Z,1
2019-02-14T15:47:09.094Z,1
2019-02-14T15:52:11.619Z,1
2019-02-14T15:57:15.748Z,1
2019-02-14T16:02:16.599Z,1
2019-02-14T16:07:18.922Z,1
2019-02-14T16:12:21.948Z,1
2019-02-14T16:17:23.983Z,1
2019-02-14T16:22:29.926Z,1
2019-02-14T16:27:28.746Z,1
2019-02-14T16:32:31.261Z,1
2019-02-14T16:37:33.711Z,1
2019-02-14T16:42:36.169Z,1
2019-02-14T16:47:38.628Z,1
2019-02-14T16:52:41.058Z,1
2019-02-14T16:57:43.584Z,1
2019-02-14T17:02:46.016Z,1
2019-02-14T17:07:48.397Z,1
2019-02-14T17:12:50.863Z,1
2019-02-14T17:17:53.332Z,1
2019-02-14T17:22:55.806Z,1
2019-02-14T17:27:58.253Z,1
2019-02-14T17:33:00.763Z,1
2019-02-14T17:38:03.194Z,1
2019-02-14T17:43:05.632Z,1
2019-02-14T17:48:08.076Z,1
2019-02-14T17:53:10.535Z,1
2019-02-14T17:58:13.032Z,1
2019-02-14T18:03:15.603Z,1
2019-02-14T18:08:17.939Z,1
2019-02-14T18:13:20.367Z,1
2019-02-14T18:18:22.819Z,1
2019-02-14T18:23:25.277Z,1
2019-02-14T18:28:27.727Z,1
2019-02-14T18:33:30.215Z,1
2019-02-14T18:38:32.676Z,1
2019-02-14T18:43:35.116Z,1
2019-02-14T18:48:37.589Z,1
2019-02-14T18:53:40.038Z,1
2019-02-14T18:58:42.522Z,1
2019-02-14T19:03:44.952Z,1
2019-02-14T19:08:47.446Z,1.3
2019-02-14T19:13:49.883Z,19
2019-02-14T19:18:52.378Z,25.4
2019-02-14T19:23:54.792Z,25.7
2019-02-14T19:28:57.257Z,26.8
2019-02-14T19:33:59.728Z,25.9
2019-02-14T19:39:02.334Z,46.4
2019-02-14T19:44:04.672Z,56.5
2019-02-14T19:49:07.166Z,69.7
2019-02-14T19:54:09.639Z,72.6
2019-02-14T19:59:12.062Z,62.9
2019-02-14T20:04:14.669Z,76.3
2019-02-14T20:09:16.994Z,85.1
2019-02-14T20:14:19.481Z,84.1
2019-02-14T20:19:21.969Z,82.7
2019-02-14T20:24:24.402Z,82
2019-02-14T20:29:26.844Z,84.4
2019-02-14T20:34:29.303Z,98.5
2019-02-14T20:39:31.759Z,99.9
2019-02-14T20:44:34.226Z,99.9
2019-02-14T20:49:36.737Z,99.9
2019-02-14T20:54:39.513Z,99.9
2019-02-14T20:59:41.629Z,99.9
2019-02-14T21:04:44.069Z,99.9
2019-02-14T21:09:46.593Z,0
2019-02-14T21:14:49.090Z,99.9
2019-02-14T21:19:51.450Z,99.9
2019-02-14T21:24:53.951Z,99.9
2019-02-14T21:29:56.485Z,99.9
2019-02-14T21:34:58.847Z,99.9
2019-02-14T21:40:06.481Z,99.9
2019-02-14T21:45:03.821Z,99.9
2019-02-14T21:50:06.274Z,99.9
2019-02-14T21:55:08.781Z,99.9
2019-02-14T22:00:11.224Z,99.9
2019-02-14T22:05:13.708Z,99.9
2019-02-14T22:10:16.095Z,99.9
2019-02-14T22:15:18.550Z,99.9
2019-02-14T22:20:21.039Z,99.9
2019-02-14T22:25:23.465Z,99.9
2019-02-14T22:30:25.934Z,99.9
2019-02-14T22:35:28.414Z,99.9
2019-02-14T22:40:30.847Z,99.9
2019-02-14T22:45:33.334Z,99.9
2019-02-14T22:50:35.768Z,99.9
2019-02-14T22:55:38.232Z,99.9
2019-02-14T23:00:40.708Z,99.9
2019-02-14T23:05:43.166Z,99.9
2019-02-14T23:10:45.604Z,99.9
2019-02-14T23:15:48.094Z,99.9
2019-02-14T23:20:50.548Z,99.9
2019-02-14T23:25:53.084Z,99.9
2019-02-14T23:30:55.450Z,99.9
2019-02-14T23:35:58.047Z,99.9
2019-02-14T23:41:00.369Z,99.9
2019-02-14T23:46:02.883Z,99.9
2019-02-14T23:51:05.367Z,99.9
2019-02-14T23:56:07.745Z,99.9
